createdAt,value
2023-05-16T00:02:11.673Z,89.65
2023-05-16T00:04:41.190Z,89.74
2023-05-16T00:07:10.293Z,89.17
2023-05-16T00:09:39.259Z,87.88
2023-05-16T00:12:10.049Z,88.32
2023-05-16T00:14:38.857Z,88.97
2023-05-16T00:17:12.102Z,88.61
2023-05-16T00:19:42.236Z,88.91
2023-05-16T00:22:12.305Z,88.79
2023-05-16T00:24:41.095Z,88.36
2023-05-16T00:27:11.500Z,88.48
2023-05-16T00:29:40.412Z,88.04
2023-05-16T00:32:09.766Z,89.35
2023-05-16T00:34:38.634Z,89.90
2023-05-16T00:37:07.826Z,88.89
2023-05-16T00:39:36.630Z,87.78
2023-05-16T00:42:05.965Z,89.02
2023-05-16T00:44:36.176Z,88.69
2023-05-16T00:47:05.398Z,88.61
2023-05-16T00:49:35.162Z,87.40
2023-05-16T00:52:05.008Z,87.92
2023-05-16T00:54:35.006Z,86.94
2023-05-16T00:57:04.716Z,86.40
2023-05-16T00:59:33.588Z,87.17
2023-05-16T01:02:04.120Z,87.13
2023-05-16T01:04:33.485Z,86.96
2023-05-16T01:07:03.501Z,86.62
2023-05-16T01:09:32.548Z,87.23
2023-05-16T01:12:08.421Z,86.99
2023-05-16T01:14:40.061Z,87.97
2023-05-16T01:17:18.346Z,87.96
2023-05-16T01:19:52.462Z,87.08
2023-05-16T01:22:30.715Z,87.16
2023-05-16T01:25:06.422Z,87.31
2023-05-16T01:27:37.283Z,88.38
2023-05-16T01:30:16.074Z,88.24
2023-05-16T01:32:45.927Z,88.96
2023-05-16T01:35:16.934Z,88.97
2023-05-16T01:37:50.060Z,89.40
2023-05-16T01:40:22.637Z,88.83
2023-05-16T01:42:54.918Z,88.36
2023-05-16T01:45:27.016Z,87.90
2023-05-16T01:48:02.108Z,87.08
2023-05-16T01:50:33.621Z,89.02
2023-05-16T01:53:05.231Z,86.96
2023-05-16T01:55:38.092Z,86.87
2023-05-16T01:58:09.074Z,86.85
2023-05-16T02:00:38.134Z,86.73
2023-05-16T02:03:07.589Z,86.24
2023-05-16T02:05:36.612Z,86.31
2023-05-16T02:08:05.897Z,86.16
2023-05-16T02:10:34.736Z,86.27
2023-05-16T02:13:03.867Z,86.78
2023-05-16T02:15:34.075Z,86.13
2023-05-16T02:18:03.263Z,86.61
2023-05-16T02:20:32.317Z,86.16
2023-05-16T02:23:03.762Z,86.78
2023-05-16T02:25:34.290Z,86.64
2023-05-16T02:28:03.682Z,88.19
2023-05-16T02:30:32.673Z,87.34
2023-05-16T02:33:03.276Z,88.48
2023-05-16T02:35:32.357Z,86.95
2023-05-16T02:38:02.404Z,87.80
2023-05-16T02:40:31.207Z,87.22
2023-05-16T02:43:00.232Z,86.30
2023-05-16T02:45:29.141Z,86.68
2023-05-16T02:47:58.341Z,87.71
2023-05-16T02:50:28.525Z,87.08
2023-05-16T02:52:59.818Z,86.86
2023-05-16T02:55:28.693Z,87.46
2023-05-16T02:57:59.396Z,87.66
2023-05-16T03:00:28.271Z,87.12
2023-05-16T03:02:58.197Z,87.07
2023-05-16T03:05:28.672Z,88.00
2023-05-16T03:07:57.996Z,87.45
2023-05-16T03:10:26.734Z,88.35
2023-05-16T03:12:56.163Z,88.25
2023-05-16T03:15:25.087Z,87.52
2023-05-16T03:17:54.519Z,87.81
2023-05-16T03:20:23.417Z,87.02
2023-05-16T03:22:53.896Z,87.39
2023-05-16T03:25:22.860Z,87.07
2023-05-16T03:27:51.917Z,87.03
2023-05-16T03:30:21.322Z,87.11
2023-05-16T03:32:50.440Z,86.59
2023-05-16T03:35:19.268Z,87.27
2023-05-16T03:37:48.317Z,87.08
2023-05-16T03:40:18.594Z,88.23
2023-05-16T03:42:47.806Z,88.36
2023-05-16T03:45:16.685Z,89.37
2023-05-16T03:47:46.022Z,88.94
2023-05-16T03:50:14.784Z,88.88
2023-05-16T03:52:44.056Z,88.43
2023-05-16T03:55:14.535Z,88.06
2023-05-16T03:57:45.097Z,88.67
2023-05-16T04:00:14.688Z,88.14
2023-05-16T04:02:44.148Z,88.35
2023-05-16T04:05:14.097Z,88.85
2023-05-16T04:07:43.334Z,88.82
2023-05-16T04:10:12.506Z,88.34
2023-05-16T04:12:41.626Z,88.47
2023-05-16T04:15:12.129Z,88.52
2023-05-16T04:17:41.297Z,88.87
2023-05-16T04:20:10.409Z,89.49
2023-05-16T04:22:39.546Z,88.92
2023-05-16T04:25:08.575Z,88.69
2023-05-16T04:27:37.691Z,89.09
2023-05-16T04:30:06.935Z,88.76
2023-05-16T04:32:37.560Z,88.73
2023-05-16T04:35:07.386Z,88.72
2023-05-16T04:37:36.939Z,88.26
2023-05-16T04:40:07.802Z,88.50
2023-05-16T04:42:37.589Z,88.88
2023-05-16T04:45:11.093Z,89.21
2023-05-16T04:47:42.404Z,88.41
2023-05-16T04:50:11.737Z,88.53
2023-05-16T04:52:40.840Z,89.19
2023-05-16T04:55:10.301Z,88.74
2023-05-16T04:57:39.501Z,88.88
2023-05-16T05:00:10.464Z,88.69
2023-05-16T05:02:41.066Z,88.20
2023-05-16T05:05:10.458Z,88.82
2023-05-16T05:07:39.663Z,88.78
2023-05-16T05:10:08.942Z,88.29
2023-05-16T05:12:38.110Z,88.24
2023-05-16T05:15:07.698Z,87.84
2023-05-16T05:17:37.943Z,88.05
2023-05-16T05:20:10.515Z,88.76
2023-05-16T05:22:39.643Z,88.77
2023-05-16T05:25:08.694Z,88.83
2023-05-16T05:27:37.820Z,88.12
2023-05-16T05:30:07.350Z,88.18
2023-05-16T05:32:36.946Z,88.17
2023-05-16T05:35:06.111Z,87.95
2023-05-16T05:37:36.677Z,88.31
2023-05-16T05:40:05.969Z,88.03
2023-05-16T05:42:35.330Z,88.27
2023-05-16T05:45:04.780Z,88.34
2023-05-16T05:47:33.849Z,88.11
2023-05-16T05:50:02.723Z,88.88
2023-05-16T05:52:31.861Z,88.88
2023-05-16T05:55:01.989Z,88.70
2023-05-16T05:57:31.086Z,88.99
2023-05-16T05:59:59.836Z,88.90
2023-05-16T06:02:29.345Z,88.76
2023-05-16T06:04:58.329Z,89.10
2023-05-16T06:07:27.444Z,88.91
2023-05-16T06:09:56.190Z,89.30
2023-05-16T06:12:27.533Z,89.52
2023-05-16T06:14:57.131Z,89.02
2023-05-16T06:17:26.549Z,90.31
2023-05-16T06:19:55.596Z,89.70
2023-05-16T06:22:24.675Z,89.92
2023-05-16T06:24:53.469Z,89.73
2023-05-16T06:27:22.738Z,90.36
2023-05-16T06:29:52.903Z,90.54
2023-05-16T06:32:22.098Z,90.64
2023-05-16T06:34:51.004Z,90.80
2023-05-16T06:37:20.297Z,91.58
2023-05-16T06:39:49.099Z,91.54
2023-05-16T06:42:18.375Z,92.21
2023-05-16T06:44:47.438Z,91.86
2023-05-16T06:47:18.041Z,92.02
2023-05-16T06:49:46.924Z,92.23
2023-05-16T06:52:16.024Z,92.11
2023-05-16T06:54:45.058Z,92.40
2023-05-16T06:57:14.559Z,92.27
2023-05-16T06:59:44.440Z,91.85
2023-05-16T07:02:13.638Z,91.94
2023-05-16T07:04:43.794Z,91.39
2023-05-16T07:07:13.667Z,91.71
2023-05-16T07:09:42.520Z,90.99
2023-05-16T07:12:11.757Z,90.68
2023-05-16T07:14:40.758Z,90.98
2023-05-16T07:17:09.989Z,90.51
2023-05-16T07:19:38.854Z,90.71
2023-05-16T07:22:09.448Z,90.38
2023-05-16T07:24:38.269Z,90.28
2023-05-16T07:27:07.396Z,90.22
2023-05-16T07:29:37.446Z,90.14
2023-05-16T07:32:07.165Z,90.41
2023-05-16T07:34:35.882Z,90.28
2023-05-16T07:37:05.230Z,90.23
2023-05-16T07:39:35.437Z,89.73
2023-05-16T07:42:04.494Z,89.43
2023-05-16T07:44:33.203Z,89.39
2023-05-16T07:47:02.232Z,89.25
2023-05-16T07:49:31.141Z,89.25
2023-05-16T07:52:00.201Z,89.31
2023-05-16T07:54:28.818Z,89.64
2023-05-16T07:56:59.242Z,90.00
2023-05-16T07:59:28.080Z,90.18
2023-05-16T08:01:57.390Z,90.18
2023-05-16T08:04:26.355Z,90.54
2023-05-16T08:06:55.633Z,90.14
2023-05-16T08:09:24.291Z,90.31
2023-05-16T08:11:53.221Z,90.25
2023-05-16T08:14:23.387Z,91.21
2023-05-16T08:16:52.446Z,90.54
2023-05-16T08:19:21.229Z,90.81
2023-05-16T08:21:51.643Z,90.53
2023-05-16T08:24:20.608Z,90.41
2023-05-16T08:26:49.618Z,89.73
2023-05-16T08:29:18.346Z,90.38
2023-05-16T08:31:48.750Z,90.07
2023-05-16T08:34:17.517Z,89.96
2023-05-16T08:36:46.620Z,90.19
2023-05-16T08:39:15.455Z,90.21
2023-05-16T08:41:44.801Z,90.26
2023-05-16T08:44:21.215Z,90.63
2023-05-16T08:46:52.794Z,91.47
2023-05-16T08:49:22.002Z,91.12
2023-05-16T08:51:52.992Z,92.15
2023-05-16T08:54:22.774Z,91.66
2023-05-16T08:56:51.919Z,91.50
2023-05-16T08:59:20.957Z,92.02
2023-05-16T09:01:50.090Z,91.96
2023-05-16T09:04:20.657Z,91.95
2023-05-16T09:06:50.252Z,91.56
2023-05-16T09:09:19.735Z,90.96
2023-05-16T09:11:48.859Z,90.31
2023-05-16T09:14:17.922Z,90.06
2023-05-16T09:17:03.901Z,89.95
2023-05-16T09:19:44.337Z,89.38
2023-05-16T09:22:14.441Z,88.75
2023-05-16T09:24:44.116Z,88.65
2023-05-16T09:27:14.039Z,88.88
2023-05-16T09:29:42.812Z,88.37
2023-05-16T09:32:13.452Z,87.96
2023-05-16T09:34:48.128Z,87.33
2023-05-16T09:37:17.173Z,86.62
2023-05-16T09:39:47.558Z,86.47
2023-05-16T09:42:16.909Z,86.33
2023-05-16T09:44:47.767Z,85.69
2023-05-16T09:47:18.894Z,85.43
2023-05-16T09:49:49.947Z,85.78
2023-05-16T09:52:19.713Z,85.86
2023-05-16T09:54:49.908Z,85.00
2023-05-16T09:57:19.510Z,84.73
2023-05-16T09:59:48.396Z,84.52
2023-05-16T10:02:17.504Z,84.30
2023-05-16T10:04:46.635Z,84.32
2023-05-16T10:07:17.237Z,84.78
2023-05-16T10:09:46.336Z,84.75
2023-05-16T10:12:16.399Z,84.44
2023-05-16T10:14:46.551Z,85.03
2023-05-16T10:17:16.678Z,84.74
2023-05-16T10:19:46.417Z,84.48
2023-05-16T10:22:17.656Z,85.31
2023-05-16T10:24:49.472Z,84.17
2023-05-16T10:27:19.451Z,84.22
2023-05-16T10:29:54.694Z,83.62
2023-05-16T10:32:27.202Z,83.88
2023-05-16T10:34:56.912Z,82.11
2023-05-16T10:37:28.469Z,82.47
2023-05-16T10:39:57.680Z,81.98
2023-05-16T10:42:26.645Z,81.95
2023-05-16T10:45:04.830Z,81.56
2023-05-16T10:47:34.886Z,81.52
2023-05-16T10:50:03.947Z,80.47
2023-05-16T10:52:35.858Z,79.87
2023-05-16T10:55:05.648Z,79.17
2023-05-16T10:57:36.589Z,79.35
2023-05-16T11:00:10.401Z,77.97
2023-05-16T11:02:42.206Z,78.50
2023-05-16T11:05:14.512Z,79.06
2023-05-16T11:07:44.972Z,79.00
2023-05-16T11:10:17.589Z,77.92
2023-05-16T11:12:47.311Z,76.60
2023-05-16T11:15:20.618Z,77.05
2023-05-16T11:17:49.759Z,76.79
2023-05-16T11:20:27.930Z,77.06
2023-05-16T11:23:14.858Z,76.18
2023-05-16T11:25:46.093Z,76.52
2023-05-16T11:28:15.256Z,76.00
2023-05-16T11:30:44.557Z,75.91
2023-05-16T11:33:14.028Z,75.73
2023-05-16T11:35:43.236Z,75.31
2023-05-16T11:38:17.253Z,74.88
2023-05-16T11:40:47.410Z,75.30
2023-05-16T11:43:19.340Z,74.94
2023-05-16T11:45:48.084Z,75.52
2023-05-16T11:48:28.447Z,75.74
2023-05-16T11:51:01.808Z,76.20
2023-05-16T11:53:30.822Z,75.82
2023-05-16T11:56:02.281Z,76.17
2023-05-16T11:58:31.996Z,75.52
2023-05-16T12:01:01.015Z,76.14
2023-05-16T12:03:33.744Z,75.94
2023-05-16T12:06:03.144Z,75.98
2023-05-16T12:08:32.143Z,74.77
2023-05-16T12:11:02.373Z,75.43
2023-05-16T12:13:31.445Z,74.44
2023-05-16T12:16:00.647Z,73.95
2023-05-16T12:18:29.785Z,73.86
2023-05-16T12:20:58.504Z,74.06
2023-05-16T12:23:28.032Z,74.28
2023-05-16T12:25:57.784Z,74.05
2023-05-16T12:28:31.763Z,74.14
2023-05-16T12:31:00.702Z,74.35
2023-05-16T12:33:29.863Z,74.38
2023-05-16T12:36:01.756Z,73.87
2023-05-16T12:38:30.846Z,72.62
2023-05-16T12:41:00.143Z,73.18
2023-05-16T12:43:30.598Z,73.30
2023-05-16T12:45:59.419Z,73.50
2023-05-16T12:48:32.922Z,72.23
2023-05-16T12:51:11.625Z,72.12
2023-05-16T12:53:54.353Z,71.70
2023-05-16T12:56:30.667Z,72.17
2023-05-16T12:59:01.050Z,72.32
2023-05-16T13:01:29.840Z,73.05
2023-05-16T13:03:59.453Z,73.68
2023-05-16T13:06:30.906Z,74.62
2023-05-16T13:09:05.971Z,75.26
2023-05-16T13:11:34.765Z,75.67
2023-05-16T13:14:05.358Z,75.25
2023-05-16T13:16:34.224Z,75.56
2023-05-16T13:19:03.598Z,75.34
2023-05-16T13:21:32.600Z,75.32
2023-05-16T13:24:01.611Z,75.13
2023-05-16T13:26:30.414Z,74.86
2023-05-16T13:28:59.548Z,74.75
2023-05-16T13:31:29.691Z,75.25
2023-05-16T13:33:59.016Z,75.09
2023-05-16T13:36:29.907Z,75.22
2023-05-16T13:39:04.668Z,74.84
2023-05-16T13:41:37.678Z,75.07
2023-05-16T13:44:06.918Z,74.78
2023-05-16T13:46:36.970Z,75.48
2023-05-16T13:49:07.124Z,75.01
2023-05-16T13:51:36.001Z,75.02
2023-05-16T13:54:04.968Z,75.01
2023-05-16T13:56:33.799Z,75.32
2023-05-16T13:59:06.835Z,75.25
2023-05-16T14:01:37.880Z,75.36
2023-05-16T14:04:07.010Z,75.50
2023-05-16T14:06:35.741Z,75.54
2023-05-16T14:09:04.941Z,76.55
2023-05-16T14:11:33.618Z,76.78
2023-05-16T14:14:02.669Z,76.49
2023-05-16T14:16:31.504Z,76.61
2023-05-16T14:19:02.006Z,76.40
2023-05-16T14:21:30.770Z,76.73
2023-05-16T14:23:59.952Z,76.45
2023-05-16T14:26:28.667Z,76.56
2023-05-16T14:28:57.265Z,76.36
2023-05-16T14:31:26.400Z,76.16
2023-05-16T14:33:55.088Z,76.16
2023-05-16T14:36:25.685Z,76.31
2023-05-16T14:38:54.534Z,75.94
2023-05-16T14:41:23.544Z,76.29
2023-05-16T14:43:52.309Z,76.16
2023-05-16T14:46:21.339Z,76.40
2023-05-16T14:48:51.122Z,76.04
2023-05-16T14:51:20.197Z,75.84
2023-05-16T14:53:50.307Z,75.75
2023-05-16T14:56:19.336Z,75.69
2023-05-16T14:58:48.094Z,76.41
2023-05-16T15:01:17.328Z,76.57
2023-05-16T15:03:55.350Z,76.76
2023-05-16T15:06:25.684Z,77.14
2023-05-16T15:08:56.054Z,77.20
2023-05-16T15:11:25.078Z,77.45
2023-05-16T15:13:54.139Z,77.87
2023-05-16T15:16:23.318Z,78.40
2023-05-16T15:18:52.183Z,78.87
2023-05-16T15:21:21.247Z,78.56
2023-05-16T15:23:50.091Z,78.56
2023-05-16T15:26:21.206Z,78.89
2023-05-16T15:28:50.323Z,79.21
2023-05-16T15:31:19.317Z,78.53
2023-05-16T15:33:48.735Z,78.42
2023-05-16T15:36:17.812Z,77.83
2023-05-16T15:38:47.539Z,78.13
2023-05-16T15:41:36.813Z,77.49
2023-05-16T15:44:07.167Z,76.22
2023-05-16T15:46:36.346Z,75.54
2023-05-16T15:49:05.098Z,75.90
2023-05-16T15:51:34.086Z,75.31
2023-05-16T15:54:03.020Z,75.31
2023-05-16T15:56:32.072Z,75.42
2023-05-16T15:59:00.824Z,76.02
2023-05-16T16:01:31.277Z,76.16
2023-05-16T16:04:00.077Z,76.36
2023-05-16T16:06:29.202Z,76.85
2023-05-16T16:08:57.949Z,76.10
2023-05-16T16:11:27.654Z,76.41
2023-05-16T16:13:56.398Z,76.30
2023-05-16T16:16:25.460Z,76.19
2023-05-16T16:18:55.733Z,76.83
2023-05-16T16:21:24.888Z,76.82
2023-05-16T16:23:53.626Z,76.05
2023-05-16T16:26:22.611Z,75.67
2023-05-16T16:28:51.326Z,75.92
2023-05-16T16:31:20.758Z,75.92
2023-05-16T16:33:50.361Z,76.08
2023-05-16T16:36:21.303Z,75.81
2023-05-16T16:38:50.043Z,75.67
2023-05-16T16:41:19.001Z,75.35
2023-05-16T16:43:47.743Z,75.52
2023-05-16T16:46:16.870Z,75.10
2023-05-16T16:48:45.666Z,75.69
2023-05-16T16:51:16.969Z,75.98
2023-05-16T16:53:52.007Z,75.61
2023-05-16T16:56:21.860Z,75.68
2023-05-16T16:58:50.618Z,76.50
2023-05-16T17:01:19.643Z,76.01
2023-05-16T17:03:48.505Z,76.20
2023-05-16T17:06:17.531Z,76.72
2023-05-16T17:08:46.526Z,76.58
2023-05-16T17:11:22.719Z,76.60
2023-05-16T17:13:51.842Z,76.41
2023-05-16T17:16:20.903Z,76.26
2023-05-16T17:18:49.658Z,76.17
2023-05-16T17:21:18.687Z,76.79
2023-05-16T17:23:47.392Z,76.83
2023-05-16T17:26:17.931Z,76.72
2023-05-16T17:28:46.742Z,76.89
2023-05-16T17:31:15.872Z,76.47
2023-05-16T17:33:44.621Z,76.25
2023-05-16T17:36:13.554Z,76.35
2023-05-16T17:38:42.269Z,75.96
2023-05-16T17:41:11.293Z,75.83
2023-05-16T17:43:44.638Z,75.67
2023-05-16T17:46:14.544Z,75.71
2023-05-16T17:48:43.666Z,76.06
2023-05-16T17:51:12.648Z,74.89
2023-05-16T17:53:41.711Z,74.08
2023-05-16T17:56:10.714Z,73.93
2023-05-16T17:58:39.383Z,75.15
2023-05-16T18:01:10.323Z,74.81
2023-05-16T18:03:39.506Z,74.41
2023-05-16T18:06:09.227Z,74.48
2023-05-16T18:08:38.006Z,74.36
2023-05-16T18:11:06.972Z,73.58
2023-05-16T18:13:35.747Z,73.79
2023-05-16T18:16:04.864Z,73.87
2023-05-16T18:18:37.560Z,73.41
2023-05-16T18:21:06.919Z,71.89
2023-05-16T18:23:38.263Z,72.10
2023-05-16T18:26:07.894Z,72.06
2023-05-16T18:28:36.563Z,71.83
2023-05-16T18:31:05.585Z,71.76
2023-05-16T18:33:36.171Z,71.49
2023-05-16T18:36:05.665Z,71.62
2023-05-16T18:38:34.481Z,71.68
2023-05-16T18:41:03.640Z,71.60
2023-05-16T18:43:35.248Z,71.81
2023-05-16T18:46:04.374Z,72.13
2023-05-16T18:48:35.338Z,71.61
2023-05-16T18:51:06.576Z,71.53
2023-05-16T18:53:36.027Z,71.88
2023-05-16T18:56:05.397Z,71.75
2023-05-16T18:58:34.111Z,71.50
2023-05-16T19:01:03.979Z,71.56
2023-05-16T19:03:32.847Z,71.61
2023-05-16T19:06:01.938Z,71.72
2023-05-16T19:08:46.552Z,71.90
2023-05-16T19:11:17.292Z,71.92
2023-05-16T19:13:46.119Z,71.50
2023-05-16T19:16:15.342Z,71.63
2023-05-16T19:18:44.248Z,72.01
2023-05-16T19:21:14.175Z,72.26
2023-05-16T19:23:45.330Z,71.88
2023-05-16T19:26:14.406Z,71.86
2023-05-16T19:28:43.112Z,72.12
2023-05-16T19:31:12.177Z,72.03
2023-05-16T19:33:40.877Z,71.90
2023-05-16T19:36:10.008Z,72.03
2023-05-16T19:38:39.021Z,71.92
2023-05-16T19:41:09.412Z,72.28
2023-05-16T19:43:38.235Z,72.31
2023-05-16T19:46:07.405Z,72.02
2023-05-16T19:48:36.607Z,72.13
2023-05-16T19:51:05.752Z,72.32
2023-05-16T19:53:34.551Z,72.83
2023-05-16T19:56:04.399Z,72.79
2023-05-16T19:58:34.583Z,72.67
2023-05-16T20:01:04.346Z,72.43
2023-05-16T20:03:33.104Z,72.69
2023-05-16T20:06:02.257Z,72.51
2023-05-16T20:08:30.976Z,72.42
2023-05-16T20:10:59.971Z,72.77
2023-05-16T20:13:30.467Z,73.18
2023-05-16T20:16:01.011Z,72.73
2023-05-16T20:18:29.964Z,72.73
2023-05-16T20:20:59.070Z,73.12
2023-05-16T20:23:27.819Z,73.49
2023-05-16T20:25:56.790Z,73.12
2023-05-16T20:28:25.559Z,73.09
2023-05-16T20:30:54.518Z,73.01
2023-05-16T20:33:24.794Z,72.90
2023-05-16T20:35:53.863Z,72.82
2023-05-16T20:38:22.548Z,72.88
2023-05-16T20:40:51.764Z,72.87
2023-05-16T20:43:20.560Z,73.46
2023-05-16T20:45:49.567Z,73.20
2023-05-16T20:48:18.285Z,74.30
2023-05-16T20:50:48.794Z,74.25
2023-05-16T20:53:17.479Z,74.08
2023-05-16T20:55:46.453Z,74.33
2023-05-16T20:58:15.765Z,74.28
2023-05-16T21:00:44.725Z,74.06
2023-05-16T21:03:13.857Z,74.37
2023-05-16T21:05:42.927Z,74.16
2023-05-16T21:08:13.141Z,74.34
2023-05-16T21:10:42.128Z,74.78
2023-05-16T21:13:10.892Z,74.72
2023-05-16T21:15:40.032Z,74.78
2023-05-16T21:18:08.946Z,74.77
2023-05-16T21:20:38.092Z,74.75
2023-05-16T21:23:06.766Z,74.41
2023-05-16T21:25:37.652Z,75.23
2023-05-16T21:28:06.548Z,74.37
2023-05-16T21:30:35.544Z,75.08
2023-05-16T21:33:04.399Z,74.46
2023-05-16T21:35:33.739Z,75.42
2023-05-16T21:38:02.465Z,76.23
2023-05-16T21:40:31.531Z,76.09
2023-05-16T21:43:01.646Z,75.68
2023-05-16T21:45:30.731Z,75.53
2023-05-16T21:47:59.518Z,74.88
2023-05-16T21:50:28.685Z,75.41
2023-05-16T21:52:57.371Z,75.60
2023-05-16T21:55:27.026Z,76.04
2023-05-16T21:57:55.906Z,75.90
2023-05-16T22:01:01.275Z,76.03
2023-05-16T22:03:56.346Z,75.47
2023-05-16T22:06:25.889Z,75.31
2023-05-16T22:08:54.975Z,75.58
2023-05-16T22:11:23.994Z,75.67
2023-05-16T22:13:52.805Z,75.06
2023-05-16T22:16:21.965Z,75.82
2023-05-16T22:18:50.806Z,75.11
2023-05-16T22:21:21.279Z,75.80
2023-05-16T22:23:49.951Z,76.44
2023-05-16T22:26:18.890Z,76.83
2023-05-16T22:28:47.622Z,77.49
2023-05-16T22:31:16.575Z,76.50
2023-05-16T22:33:45.544Z,76.48
2023-05-16T22:36:14.596Z,76.77
2023-05-16T22:38:44.667Z,77.65
2023-05-16T22:41:13.692Z,77.76
2023-05-16T22:43:42.346Z,77.75
2023-05-16T22:46:11.339Z,78.88
2023-05-16T22:48:40.176Z,77.18
2023-05-16T22:51:09.317Z,78.20
2023-05-16T22:53:37.960Z,77.92
2023-05-16T22:56:08.941Z,78.25
2023-05-16T22:58:37.655Z,77.00
2023-05-16T23:01:06.839Z,76.63
2023-05-16T23:03:35.587Z,77.32
2023-05-16T23:06:04.760Z,77.07
2023-05-16T23:08:33.674Z,77.22
2023-05-16T23:11:02.817Z,78.10
2023-05-16T23:13:32.867Z,78.37
2023-05-16T23:16:01.854Z,78.26
2023-05-16T23:18:30.586Z,78.69
2023-05-16T23:20:59.676Z,77.57
2023-05-16T23:23:28.369Z,77.74
2023-05-16T23:25:57.445Z,76.66
2023-05-16T23:28:26.054Z,77.76
2023-05-16T23:30:56.423Z,77.60
2023-05-16T23:33:25.245Z,77.84
2023-05-16T23:35:54.209Z,77.43
2023-05-16T23:38:22.999Z,77.56
2023-05-16T23:40:52.042Z,78.78
2023-05-16T23:43:21.076Z,77.80
2023-05-16T23:45:50.028Z,78.83
2023-05-16T23:48:20.450Z,78.79
2023-05-16T23:50:49.512Z,78.50
2023-05-16T23:53:18.301Z,79.10
2023-05-16T23:55:47.345Z,78.58
2023-05-16T23:58:15.992Z,78.24
